createdAt,value
2019-05-26T00:02:16.003Z,6.83
2019-05-26T00:04:44.536Z,6.00
2019-05-26T00:07:13.122Z,5.83
2019-05-26T00:09:41.611Z,6.30
2019-05-26T00:12:10.107Z,5.50
2019-05-26T00:14:38.618Z,7.20
2019-05-26T00:17:07.182Z,5.50
2019-05-26T00:19:35.614Z,5.20
2019-05-26T00:22:04.288Z,5.47
2019-05-26T00:24:32.918Z,5.63
2019-05-26T00:27:01.524Z,5.60
2019-05-26T00:29:30.103Z,5.77
2019-05-26T00:31:58.668Z,5.10
2019-05-26T00:34:27.175Z,5.73
2019-05-26T00:36:55.623Z,5.73
2019-05-26T00:39:24.096Z,5.93
2019-05-26T00:41:52.564Z,6.33
2019-05-26T00:44:21.301Z,5.60
2019-05-26T00:46:49.937Z,5.17
2019-05-26T00:49:18.405Z,5.40
2019-05-26T00:51:47.047Z,6.60
2019-05-26T00:54:15.609Z,7.37
2019-05-26T00:56:44.220Z,6.13
2019-05-26T00:59:12.894Z,5.07
2019-05-26T01:01:41.464Z,5.93
2019-05-26T01:04:10.046Z,6.13
2019-05-26T01:06:38.565Z,7.33
2019-05-26T01:09:08.669Z,7.57
2019-05-26T01:11:37.136Z,6.77
2019-05-26T01:14:05.841Z,7.27
2019-05-26T01:16:34.332Z,8.07
2019-05-26T01:19:02.966Z,6.20
2019-05-26T01:21:31.473Z,6.17
2019-05-26T01:24:00.069Z,6.73
2019-05-26T01:26:28.599Z,6.83
2019-05-26T01:28:57.170Z,5.83
2019-05-26T01:31:25.647Z,5.90
2019-05-26T01:33:54.203Z,4.90
2019-05-26T01:36:22.806Z,5.90
2019-05-26T01:38:51.848Z,5.03
2019-05-26T01:41:20.392Z,5.13
2019-05-26T01:43:48.933Z,7.63
2019-05-26T01:46:17.461Z,5.37
2019-05-26T01:48:47.611Z,7.47
2019-05-26T01:51:16.093Z,6.07
2019-05-26T01:53:44.592Z,6.10
2019-05-26T01:56:13.159Z,6.17
2019-05-26T01:58:41.628Z,7.07
2019-05-26T02:01:10.063Z,9.43
2019-05-26T02:03:38.617Z,8.03
2019-05-26T02:06:07.183Z,7.93
2019-05-26T02:08:39.396Z,7.23
2019-05-26T02:11:05.977Z,8.20
2019-05-26T02:13:34.480Z,8.50
2019-05-26T02:16:02.934Z,8.53
2019-05-26T02:18:31.438Z,8.70
2019-05-26T02:20:59.957Z,8.90
2019-05-26T02:23:28.476Z,8.10
2019-05-26T02:25:56.953Z,8.63
2019-05-26T02:28:26.098Z,8.40
2019-05-26T02:30:54.559Z,6.63
2019-05-26T02:33:23.017Z,5.73
2019-05-26T02:35:51.490Z,5.30
2019-05-26T02:38:20.116Z,7.17
2019-05-26T02:40:48.618Z,7.73
2019-05-26T02:43:17.142Z,7.30
2019-05-26T02:45:45.992Z,7.23
2019-05-26T02:48:14.576Z,7.50
2019-05-26T02:50:43.118Z,7.93
2019-05-26T02:53:11.703Z,7.77
2019-05-26T02:55:40.238Z,7.97
2019-05-26T02:58:08.739Z,5.73
2019-05-26T03:00:46.973Z,5.87
2019-05-26T03:03:16.366Z,6.30
2019-05-26T03:05:45.866Z,6.57
2019-05-26T03:08:16.165Z,5.53
2019-05-26T03:10:44.897Z,5.13
2019-05-26T03:13:14.869Z,6.23
2019-05-26T03:15:45.308Z,6.53
2019-05-26T03:18:13.976Z,5.23
2019-05-26T03:20:42.901Z,6.83
2019-05-26T03:23:11.569Z,7.43
2019-05-26T03:25:40.420Z,5.67
2019-05-26T03:28:09.163Z,5.87
2019-05-26T03:30:37.979Z,6.07
2019-05-26T03:33:06.800Z,6.93
2019-05-26T03:35:35.390Z,6.40
2019-05-26T03:38:04.214Z,6.30
2019-05-26T03:40:32.733Z,6.93
2019-05-26T03:43:01.181Z,7.57
2019-05-26T03:45:35.399Z,6.47
2019-05-26T03:48:04.098Z,7.43
2019-05-26T03:50:34.104Z,7.50
2019-05-26T03:53:02.613Z,7.00
2019-05-26T03:55:31.149Z,7.33
2019-05-26T03:57:59.729Z,5.80
2019-05-26T04:00:28.246Z,6.80
2019-05-26T04:02:57.026Z,6.63
2019-05-26T04:05:25.508Z,7.00
2019-05-26T04:07:54.005Z,6.37
2019-05-26T04:10:22.483Z,6.27
2019-05-26T04:12:51.018Z,6.57
2019-05-26T04:15:19.745Z,7.50
2019-05-26T04:17:48.378Z,6.73
2019-05-26T04:20:20.135Z,6.20
2019-05-26T04:22:48.681Z,6.33
2019-05-26T04:25:17.250Z,6.27
2019-05-26T04:27:45.850Z,6.93
2019-05-26T04:30:14.436Z,6.93
2019-05-26T04:32:42.982Z,6.87
2019-05-26T04:35:11.437Z,7.03
2019-05-26T04:37:39.945Z,8.03
2019-05-26T04:40:25.923Z,6.80
2019-05-26T04:42:38.775Z,7.67
2019-05-26T04:45:10.361Z,9.00
2019-05-26T04:47:38.877Z,7.50
2019-05-26T04:50:07.617Z,9.07
2019-05-26T04:52:36.153Z,7.80
2019-05-26T04:55:08.049Z,7.70
2019-05-26T04:57:36.650Z,7.80
2019-05-26T05:00:09.307Z,7.80
2019-05-26T05:02:37.824Z,8.47
2019-05-26T05:05:07.812Z,7.63
2019-05-26T05:07:36.358Z,7.63
2019-05-26T05:10:06.564Z,7.70
2019-05-26T05:12:35.189Z,8.67
2019-05-26T05:15:08.277Z,7.50
2019-05-26T05:17:36.730Z,7.70
2019-05-26T05:20:06.784Z,7.87
2019-05-26T05:22:35.266Z,8.20
2019-05-26T05:25:14.104Z,8.53
2019-05-26T05:27:38.158Z,7.37
2019-05-26T05:30:08.616Z,7.40
2019-05-26T05:32:37.197Z,6.43
2019-05-26T05:35:08.069Z,6.37
2019-05-26T05:37:36.558Z,6.37
2019-05-26T05:40:08.353Z,5.03
2019-05-26T05:42:36.976Z,5.60
2019-05-26T05:45:08.091Z,5.40
2019-05-26T05:47:36.650Z,6.03
2019-05-26T05:50:09.144Z,6.17
2019-05-26T05:52:37.677Z,5.80
2019-05-26T05:55:06.810Z,6.10
2019-05-26T05:57:35.412Z,6.90
2019-05-26T06:00:06.503Z,7.20
2019-05-26T06:02:38.990Z,8.30
2019-05-26T06:05:08.280Z,6.63
2019-05-26T06:07:36.759Z,7.53
2019-05-26T06:10:11.892Z,6.97
2019-05-26T06:12:40.356Z,7.10
2019-05-26T06:15:14.241Z,8.13
2019-05-26T06:17:43.229Z,7.83
2019-05-26T06:20:12.059Z,7.97
2019-05-26T06:22:40.526Z,7.97
2019-05-26T06:25:09.356Z,7.67
2019-05-26T06:27:37.904Z,9.83
2019-05-26T07:04:30.238Z,8.90
2019-05-26T07:16:38.147Z,8.83
2019-05-26T07:38:22.668Z,7.27
2019-05-26T07:44:22.464Z,9.23
2019-05-26T07:47:30.424Z,8.17
2019-05-26T07:49:58.050Z,6.83
2019-05-26T07:58:34.828Z,9.30
2019-05-26T08:01:03.316Z,9.63
2019-05-26T08:03:31.846Z,9.07
2019-05-26T08:06:00.305Z,7.37
2019-05-26T08:08:28.778Z,7.43
2019-05-26T08:10:57.313Z,7.60
2019-05-26T08:13:25.768Z,8.80
2019-05-26T08:15:54.222Z,7.30
2019-05-26T08:18:25.755Z,7.43
2019-05-26T08:20:54.226Z,7.03
2019-05-26T08:23:22.699Z,8.60
2019-05-26T08:25:51.196Z,8.80
2019-05-26T08:28:19.755Z,6.77
2019-05-26T08:30:48.283Z,11.60
2019-05-26T08:33:16.841Z,8.47
2019-05-26T08:35:45.354Z,9.50
2019-05-26T08:38:13.891Z,8.63
2019-05-26T08:40:42.349Z,9.30
2019-05-26T08:43:10.917Z,8.07
2019-05-26T08:45:39.338Z,7.33
2019-05-26T08:48:07.853Z,7.50
2019-05-26T08:50:36.385Z,9.13
2019-05-26T08:53:04.947Z,7.20
2019-05-26T08:55:33.408Z,8.23
2019-05-26T08:58:01.861Z,6.33
2019-05-26T09:00:30.438Z,7.87
2019-05-26T09:02:58.859Z,8.73
2019-05-26T09:05:28.198Z,6.87
2019-05-26T09:07:56.648Z,8.10
2019-05-26T09:10:25.134Z,9.03
2019-05-26T09:13:00.809Z,7.47
2019-05-26T09:15:24.087Z,7.77
2019-05-26T09:17:52.587Z,6.67
2019-05-26T09:20:21.387Z,6.23
2019-05-26T09:22:52.654Z,6.70
2019-05-26T09:25:21.237Z,5.73
2019-05-26T09:27:49.781Z,7.03
2019-05-26T09:30:19.297Z,7.90
2019-05-26T09:32:47.763Z,5.37
2019-05-26T09:35:16.798Z,5.70
2019-05-26T09:37:45.244Z,5.03
2019-05-26T09:40:15.255Z,5.30
2019-05-26T09:42:43.730Z,6.10
2019-05-26T09:45:12.458Z,7.20
2019-05-26T09:47:43.825Z,5.60
2019-05-26T09:50:14.190Z,6.50
2019-05-26T09:52:42.644Z,4.73
2019-05-26T09:55:12.812Z,4.57
2019-05-26T09:57:41.414Z,4.83
2019-05-26T10:00:15.858Z,4.70
2019-05-26T10:02:43.005Z,5.33
2019-05-26T10:05:11.675Z,3.80
2019-05-26T10:07:40.426Z,3.93
2019-05-26T10:10:09.412Z,5.07
2019-05-26T10:12:37.930Z,6.33
2019-05-26T10:15:07.908Z,4.87
2019-05-26T10:17:36.483Z,5.00
2019-05-26T10:20:09.791Z,4.40
2019-05-26T10:22:38.400Z,4.50
2019-05-26T10:25:07.693Z,6.23
2019-05-26T10:27:36.446Z,5.60
2019-05-26T10:30:07.927Z,4.07
2019-05-26T10:32:36.419Z,5.20
2019-05-26T10:35:09.243Z,5.90
2019-05-26T10:37:37.748Z,4.80
2019-05-26T10:40:07.975Z,4.97
2019-05-26T10:42:36.483Z,4.93
2019-05-26T10:45:08.556Z,5.50
2019-05-26T10:47:37.055Z,5.13
2019-05-26T10:50:08.403Z,5.67
2019-05-26T10:52:36.855Z,5.37
2019-05-26T10:55:07.031Z,4.60
2019-05-26T10:57:37.731Z,6.40
2019-05-26T11:00:07.537Z,4.77
2019-05-26T11:02:36.048Z,7.53
2019-05-26T11:05:06.435Z,4.50
2019-05-26T11:07:34.936Z,5.43
2019-05-26T11:10:04.909Z,4.13
2019-05-26T11:12:33.380Z,4.63
2019-05-26T11:15:01.818Z,4.80
2019-05-26T11:17:30.236Z,4.23
2019-05-26T11:19:59.150Z,4.37
2019-05-26T11:22:27.608Z,5.90
2019-05-26T11:24:56.426Z,5.33
2019-05-26T11:27:24.980Z,8.83
2019-05-26T11:29:53.561Z,5.00
2019-05-26T11:32:22.980Z,5.50
2019-05-26T11:35:01.066Z,5.40
2019-05-26T11:37:21.640Z,5.57
2019-05-26T11:39:51.035Z,5.80
2019-05-26T11:42:19.588Z,5.00
2019-05-26T11:44:48.129Z,4.63
2019-05-26T11:47:16.960Z,6.40
2019-05-26T11:49:45.447Z,5.63
2019-05-26T11:52:13.911Z,5.50
2019-05-26T11:54:42.391Z,4.93
2019-05-26T11:57:10.824Z,5.50
2019-05-26T11:59:39.364Z,6.93
2019-05-26T12:02:09.469Z,5.73
2019-05-26T12:04:37.911Z,4.57
2019-05-26T12:07:06.725Z,5.93
2019-05-26T12:09:35.151Z,5.72
2019-05-26T12:12:04.356Z,3.90
2019-05-26T12:14:35.330Z,4.13
2019-05-26T12:17:02.994Z,4.37
2019-05-26T12:19:31.448Z,5.10
2019-05-26T12:21:59.880Z,4.67
2019-05-26T12:24:28.339Z,4.80
2019-05-26T12:26:56.804Z,4.20
2019-05-26T12:29:25.299Z,6.20
2019-05-26T12:31:53.811Z,4.03
2019-05-26T12:34:22.280Z,4.17
2019-05-26T12:36:50.731Z,4.10
2019-05-26T12:39:19.194Z,4.70
2019-05-26T12:41:47.771Z,4.37
2019-05-26T12:44:16.235Z,4.40
2019-05-26T12:46:44.729Z,3.90
2019-05-26T12:49:13.263Z,4.37
2019-05-26T12:51:42.282Z,5.20
2019-05-26T12:54:10.749Z,3.73
2019-05-26T12:56:39.199Z,3.70
2019-05-26T12:59:07.726Z,4.40
2019-05-26T13:01:36.183Z,3.60
2019-05-26T13:04:04.775Z,3.90
2019-05-26T13:06:33.245Z,3.33
2019-05-26T13:09:01.751Z,3.47
2019-05-26T13:11:30.194Z,3.13
2019-05-26T13:14:00.168Z,3.53
2019-05-26T13:16:28.633Z,3.00
2019-05-26T13:18:57.080Z,2.63
2019-05-26T13:21:25.508Z,2.90
2019-05-26T13:23:53.988Z,2.73
2019-05-26T13:26:22.412Z,2.60
2019-05-26T13:28:50.880Z,3.27
2019-05-26T13:31:19.348Z,2.83
2019-05-26T13:33:47.775Z,2.90
2019-05-26T13:36:16.498Z,3.17
2019-05-26T13:38:44.959Z,3.83
2019-05-26T13:41:13.400Z,3.23
2019-05-26T13:43:41.846Z,3.07
2019-05-26T13:46:10.272Z,3.67
2019-05-26T13:48:38.723Z,3.07
2019-05-26T13:51:07.215Z,3.07
2019-05-26T13:53:37.314Z,3.40
2019-05-26T13:56:05.815Z,2.93
2019-05-26T13:58:34.278Z,3.03
2019-05-26T14:01:02.708Z,2.70
2019-05-26T14:03:31.162Z,2.33
2019-05-26T14:05:59.693Z,3.73
2019-05-26T14:08:28.120Z,3.20
2019-05-26T14:10:56.858Z,2.70
2019-05-26T14:13:25.281Z,3.10
2019-05-26T14:15:55.477Z,2.87
2019-05-26T14:18:25.668Z,2.67
2019-05-26T14:20:54.136Z,2.67
2019-05-26T14:23:22.551Z,2.63
2019-05-26T14:25:50.995Z,3.43
2019-05-26T14:28:19.568Z,3.00
2019-05-26T14:30:48.031Z,2.40
2019-05-26T14:33:16.466Z,2.40
2019-05-26T14:35:44.916Z,2.40
2019-05-26T14:38:13.367Z,3.07
2019-05-26T14:40:42.183Z,2.50
2019-05-26T14:43:10.643Z,2.60
2019-05-26T14:45:52.458Z,2.50
2019-05-26T14:48:10.795Z,2.90
2019-05-26T14:50:40.926Z,2.40
2019-05-26T14:53:09.780Z,2.40
2019-05-26T14:55:39.392Z,2.40
2019-05-26T14:58:15.593Z,3.33
2019-05-26T15:00:38.024Z,2.30
2019-05-26T15:03:06.485Z,2.53
2019-05-26T15:05:34.974Z,2.10
2019-05-26T15:08:03.440Z,2.00
2019-05-26T15:10:34.637Z,2.20
2019-05-26T15:13:03.103Z,2.20
2019-05-26T15:15:34.899Z,2.07
2019-05-26T15:18:01.714Z,2.07
2019-05-26T15:20:30.163Z,2.93
2019-05-26T15:22:58.607Z,2.07
2019-05-26T15:25:28.588Z,1.90
2019-05-26T15:27:57.039Z,2.20
2019-05-26T15:30:25.552Z,3.30
2019-05-26T15:32:55.070Z,1.97
2019-05-26T15:35:23.504Z,2.10
2019-05-26T15:37:51.966Z,2.30
2019-05-26T15:40:20.560Z,2.03
2019-05-26T15:42:49.060Z,2.37
2019-05-26T15:45:19.378Z,2.10
2019-05-26T15:47:49.346Z,2.30
2019-05-26T15:50:18.980Z,1.90
2019-05-26T15:52:47.451Z,3.07
2019-05-26T15:55:16.158Z,2.03
2019-05-26T15:57:44.629Z,2.10
2019-05-26T16:00:13.585Z,2.17
2019-05-26T16:02:42.056Z,2.50
2019-05-26T16:05:13.723Z,2.40
2019-05-26T16:07:42.242Z,2.03
2019-05-26T16:10:10.850Z,2.07
2019-05-26T16:12:39.326Z,3.93
2019-05-26T16:15:09.464Z,2.10
2019-05-26T16:17:38.882Z,2.10
2019-05-26T16:20:09.437Z,1.97
2019-05-26T16:22:37.934Z,2.37
2019-05-26T16:25:07.231Z,2.30
2019-05-26T16:27:35.785Z,2.17
2019-05-26T16:30:08.599Z,1.90
2019-05-26T16:32:37.136Z,2.67
2019-05-26T16:35:06.362Z,2.37
2019-05-26T16:37:35.087Z,1.93
2019-05-26T16:40:07.809Z,2.23
2019-05-26T16:42:36.468Z,2.60
2019-05-26T16:45:10.742Z,2.33
2019-05-26T16:47:43.984Z,2.00
2019-05-26T16:50:13.854Z,2.80
2019-05-26T16:52:57.217Z,2.50
2019-05-26T16:55:43.615Z,3.30
2019-05-26T16:58:07.932Z,2.20
2019-05-26T17:00:36.723Z,3.40
2019-05-26T17:03:05.407Z,2.50
2019-05-26T17:06:35.539Z,2.53
2019-05-26T17:09:05.839Z,2.97
2019-05-26T17:11:39.337Z,2.10
2019-05-26T17:14:55.150Z,2.53
2019-05-26T17:17:30.889Z,2.37
2019-05-26T17:20:18.594Z,2.37
2019-05-26T17:22:47.594Z,2.23
2019-05-26T17:25:16.755Z,2.63
2019-05-26T17:27:45.501Z,2.20
2019-05-26T17:30:14.593Z,2.10
2019-05-26T17:32:46.403Z,2.30
2019-05-26T17:35:23.633Z,2.50
2019-05-26T17:38:10.377Z,3.43
2019-05-26T17:40:48.161Z,2.20
2019-05-26T17:43:23.354Z,2.07
2019-05-26T17:49:17.727Z,2.57
2019-05-26T17:51:46.244Z,2.53
2019-05-26T17:57:24.533Z,2.47
2019-05-26T17:59:57.334Z,2.77
2019-05-26T18:02:27.566Z,2.93
2019-05-26T18:08:16.705Z,2.30
2019-05-26T18:10:45.170Z,2.77
2019-05-26T18:13:13.635Z,2.60
2019-05-26T18:15:42.059Z,2.60
2019-05-26T18:18:10.506Z,2.37
2019-05-26T18:20:38.929Z,2.63
2019-05-26T18:23:09.024Z,2.40
2019-05-26T18:25:37.486Z,2.70
2019-05-26T18:28:05.916Z,2.80
2019-05-26T18:30:34.477Z,2.40
2019-05-26T18:33:02.904Z,2.30
2019-05-26T18:35:31.338Z,2.60
2019-05-26T18:37:59.784Z,2.20
2019-05-26T18:40:28.212Z,3.10
2019-05-26T18:42:57.203Z,2.80
2019-05-26T18:45:25.670Z,2.53
2019-05-26T18:48:03.188Z,3.03
2019-05-26T18:50:24.342Z,2.60
2019-05-26T18:52:52.788Z,3.20
2019-05-26T18:55:21.869Z,4.80
2019-05-26T18:57:50.339Z,3.10
2019-05-26T19:00:19.095Z,2.53
2019-05-26T19:02:47.569Z,2.53
2019-05-26T19:05:30.398Z,2.57
2019-05-26T19:07:46.518Z,2.60
2019-05-26T19:10:15.214Z,2.70
2019-05-26T19:12:43.654Z,2.73
2019-05-26T19:15:12.343Z,2.60
2019-05-26T19:17:40.806Z,2.70
2019-05-26T19:20:16.196Z,2.80
2019-05-26T19:22:40.572Z,3.03
2019-05-26T19:25:09.465Z,3.20
2019-05-26T19:27:38.067Z,3.20
2019-05-26T19:30:11.187Z,2.83
2019-05-26T19:32:39.807Z,3.30
2019-05-26T19:35:09.600Z,3.47
2019-05-26T19:37:38.095Z,6.20
2019-05-26T19:40:07.317Z,2.90
2019-05-26T19:42:36.691Z,2.97
2019-05-26T19:45:08.152Z,3.30
2019-05-26T19:47:36.619Z,4.20
2019-05-26T19:50:07.394Z,3.00
2019-05-26T19:55:41.069Z,3.50
2019-05-26T19:58:28.567Z,4.17
2019-05-26T20:00:57.995Z,3.50
2019-05-26T20:03:29.721Z,3.57
2019-05-26T20:06:07.189Z,3.47
2019-05-26T20:08:38.810Z,3.77
2019-05-26T20:11:11.306Z,3.30
2019-05-26T20:13:55.318Z,3.87
2019-05-26T20:16:30.952Z,4.63
2019-05-26T20:19:04.205Z,3.87
2019-05-26T20:21:36.259Z,4.77
2019-05-26T20:24:09.844Z,4.17
2019-05-26T20:26:40.951Z,4.27
2019-05-26T20:29:12.390Z,4.77
2019-05-26T20:31:42.768Z,4.33
2019-05-26T20:34:16.714Z,4.00
2019-05-26T20:36:48.965Z,4.00
2019-05-26T20:39:18.201Z,4.07
2019-05-26T20:42:05.330Z,4.63
2019-05-26T20:44:37.188Z,3.80
2019-05-26T20:52:06.198Z,7.43
2019-05-26T20:52:52.236Z,3.60
2019-05-26T20:55:24.665Z,4.23
2019-05-26T20:58:06.512Z,4.50
2019-05-26T21:00:36.728Z,4.20
2019-05-26T21:03:19.294Z,3.47
2019-05-26T21:05:51.951Z,3.67
2019-05-26T21:14:44.383Z,4.20
2019-05-26T21:17:18.658Z,4.53
2019-05-26T21:20:22.414Z,3.97
2019-05-26T21:22:56.788Z,3.73
2019-05-26T21:25:21.866Z,3.47
2019-05-26T21:27:50.376Z,4.00
2019-05-26T21:30:19.132Z,3.53
2019-05-26T21:32:47.743Z,5.00
2019-05-26T21:35:16.265Z,3.77
2019-05-26T21:37:44.681Z,4.77
2019-05-26T21:40:13.374Z,3.50
2019-05-26T21:42:41.875Z,3.23
2019-05-26T21:45:10.684Z,4.63
2019-05-26T21:47:39.111Z,5.10
2019-05-26T21:50:09.280Z,5.10
2019-05-26T21:52:37.888Z,3.97
2019-05-26T21:55:07.074Z,4.83
2019-05-26T21:57:35.623Z,4.23
2019-05-26T22:00:07.986Z,3.90
2019-05-26T22:02:36.495Z,3.60
2019-05-26T22:05:08.121Z,3.40
2019-05-26T22:07:36.579Z,4.37
2019-05-26T22:10:06.047Z,4.13
2019-05-26T22:12:34.504Z,4.60
2019-05-26T22:15:03.049Z,3.47
2019-05-26T22:17:31.479Z,3.50
2019-05-26T22:19:59.930Z,3.30
2019-05-26T22:22:28.369Z,3.30
2019-05-26T22:24:56.824Z,3.63
2019-05-26T22:27:25.291Z,3.47
2019-05-26T22:29:53.759Z,4.07
2019-05-26T22:32:22.222Z,3.50
2019-05-26T22:34:50.658Z,3.90
2019-05-26T22:37:19.084Z,4.43
2019-05-26T22:39:47.600Z,4.40
2019-05-26T22:42:16.036Z,3.50
2019-05-26T22:44:44.504Z,3.13
2019-05-26T22:47:12.948Z,3.30
2019-05-26T22:49:41.422Z,3.17
2019-05-26T22:52:10.646Z,3.57
2019-05-26T22:54:39.110Z,3.17
2019-05-26T22:57:07.795Z,3.30
2019-05-26T22:59:36.273Z,3.33
2019-05-26T23:02:04.886Z,3.43
2019-05-26T23:04:33.327Z,3.10
2019-05-26T23:07:01.763Z,4.77
2019-05-26T23:09:30.240Z,3.43
2019-05-26T23:11:58.671Z,3.10
2019-05-26T23:14:27.123Z,3.10
2019-05-26T23:16:55.549Z,3.27
2019-05-26T23:19:24.011Z,5.00
2019-05-26T23:21:52.470Z,4.23
2019-05-26T23:24:20.949Z,3.93
2019-05-26T23:26:49.371Z,4.40
2019-05-26T23:29:18.827Z,3.60
2019-05-26T23:31:47.251Z,3.20
2019-05-26T23:34:15.716Z,3.53
2019-05-26T23:36:44.155Z,3.30
2019-05-26T23:39:12.744Z,3.33
2019-05-26T23:41:41.243Z,3.40
2019-05-26T23:44:09.715Z,3.17
2019-05-26T23:46:38.142Z,3.53
2019-05-26T23:49:06.586Z,3.20
2019-05-26T23:51:35.020Z,3.73
2019-05-26T23:54:03.510Z,3.50
2019-05-26T23:56:31.949Z,3.53
2019-05-26T23:59:00.452Z,3.93
